BLAZER1 / ZF379 7700 Squawk Report (17th of January, 2019)

Time Lat Lon Altitude Heading Speed Vertical Rate
2019-01-17 15:38:35 GMT 53.974712 -1.333223 1,550 128 194 -640
2019-01-17 15:38:35 GMT 53.974712 -1.333223 1,750 128 194 -640
2019-01-17 15:38:26 GMT 53.979694 -1.336939 1,850 113 231 -2432
2019-01-17 15:38:13 GMT 53.992077 -1.341705 1,925 113 231 -2432
2019-01-17 15:38:05 GMT 53.996407 -1.357215 2,000 113 231 -2432
2019-01-17 15:37:57 GMT 54.002087 -1.371837 2,475 111 226 -2496
2019-01-17 15:37:42 GMT 54.008278 -1.390417 2,750 108 223 -2112
2019-01-17 15:37:35 GMT 54.010883 -1.402615 3,375 108 223 -2112
2019-01-17 15:37:24 GMT 54.014980 -1.425799 3,525 74 204 512
2019-01-17 15:37:11 GMT 54.020195 -1.448337 3,875 74 204 512
2019-01-17 15:37:04 GMT 54.022381 -1.457708 4,200 74 204 512
2019-01-17 15:36:51 GMT 54.026993 -1.477176 4,600 74 204 512
2019-01-17 15:36:44 GMT 54.029320 -1.485578 4,775 74 204 512
2019-01-17 15:36:31 GMT 54.034206 -1.506581 4,900 74 204 512
2019-01-17 15:36:20 GMT 54.038906 -1.541317 4,950 74 204 512
2019-01-17 15:36:11 GMT 54.038906 -1.541317 4,975 74 204 512
2019-01-17 15:35:58 GMT 54.041424 -1.562240 4,925 74 204 512
2019-01-17 15:35:50 GMT 54.042912 -1.571610 4,950 74 204 512
2019-01-17 15:35:36 GMT 54.046589 -1.605700 5,050 74 204 512
2019-01-17 15:35:32 GMT 54.048313 -1.625411 5,125 74 204 512
2019-01-17 15:35:18 GMT 54.048889 -1.637277 5,175 74 204 512
2019-01-17 15:35:10 GMT 54.048889 -1.637277 5,250 74 204 512
2019-01-17 15:34:58 GMT 54.051010 -1.660228 5,325 74 204 512
2019-01-17 15:34:44 GMT 54.052921 -1.677596 5,350 74 204 512
2019-01-17 15:34:35 GMT 54.054596 -1.691571 5,375 74 204 512
2019-01-17 15:34:27 GMT 54.056179 -1.703931 5,425 74 204 512
2019-01-17 15:34:15 GMT 54.058784 -1.721703 5,300 74 204 512
2019-01-17 15:34:08 GMT 54.060322 -1.731801 5,275 74 204 512
2019-01-17 15:33:54 GMT 54.063023 -1.753935 5,150 74 204 512
2019-01-17 15:33:47 GMT 54.065304 -1.765164 5,075 74 204 512
2019-01-17 15:33:37 GMT 54.070190 -1.804908 5,075 74 204 512
2019-01-17 15:33:26 GMT 54.072006 -1.824700 5,150 74 204 512
2019-01-17 15:33:13 GMT 54.072006 -1.824700 5,200 74 204 512
2019-01-17 15:33:03 GMT 54.073215 -1.840129 5,275 74 204 512
2019-01-17 15:32:50 GMT 54.074894 -1.861375 5,325 74 204 512
2019-01-17 15:32:42 GMT 54.078617 -1.873492 5,325 74 204 512
2019-01-17 15:32:29 GMT 54.079781 -1.896434 5,275 74 204 512
2019-01-17 15:32:18 GMT 54.079224 -1.911136 5,175 74 204 512
2019-01-17 15:32:12 GMT 54.075497 -1.944984 5,175 74 204 512
2019-01-17 15:32:00 GMT 54.075497 -1.944984 5,100 74 204 512
2019-01-17 15:31:52 GMT 54.074383 -1.955405 4,800 74 204 512
2019-01-17 15:31:41 GMT 54.071217 -1.975196 4,575 74 204 512
2019-01-17 15:31:28 GMT 54.067490 -1.995392 4,550 74 204 512
2019-01-17 15:31:20 GMT 54.063999 -2.008640 4,500 74 204 512
2019-01-17 15:31:08 GMT 54.060883 -2.025200 4,425 92 208 -128
2019-01-17 15:30:55 GMT 54.046822 -2.062279 4,275 92 208 -128
2019-01-17 15:30:45 GMT 54.046822 -2.062279 4,250 92 208 -128
2019-01-17 15:30:40 GMT 54.046497 -2.068984 4,175 93 207 -384
2019-01-17 15:30:26 GMT 54.047195 -2.095077 4,150 104 210 1472
2019-01-17 15:30:10 GMT 54.046078 -2.118099 4,150 104 210 1472
2019-01-17 15:30:05 GMT 54.045521 -2.126824 4,225 104 210 1472
2019-01-17 15:29:57 GMT 54.047382 -2.139587 4,225 104 210 1472
2019-01-17 15:29:44 GMT 54.050499 -2.160429 4,300

Making use of Plane Finder data

You are free to use the raw flight data, aircraft information and images provided in this report for your own purposes provided the data is correctly attributed to Plane Finder. We ask that you please credit Plane Finder and link to planefinder.net in close proximity to the content.

Optionally one of the following logos (no smaller then 150x24px) can be used and must link to planefinder.net

Embedding the Plane Finder map

You are welcome to embed the Plane Finder playback map on your website to offer visitors a more interactive experience. We suggest using the following HTML code:

<iframe src="//planefinder.net/data/report/BLAZER1-ZF379-7700-squawk-2019-01-17/map" width="800" height="600" seamless="seamless"></iframe>

Where our data comes from

Plane Finder has a global network of data feeds and antenna radars that receive data broadcast directly from aircraft. The primary technologies used are ADS-B and MLAT. We also show feeds from the FAA and a FLARM glider feed.

Click here to find out more about the Plane Finder network.

How we collect our data